Time;durP1;ratioP1;P1;durP2;ratioP2;P2;SDS_P1;SDS_P2;PMS_P1;PMS_P2;Temp;Humidity;BMP_temperature;BMP_pressure;BME280_temperature;BME280_humidity;BME280_pressure;Samples;Min_cycle;Max_cycle;Signal;HPM_P1;HPM_P2
2023/09/23 00:01:12;;;;;;;1.77;0.63;;;21.00;65.90;;;;;;5009411;28;20038;-53
2023/09/23 00:03:38;;;;;;;0.65;0.50;;;21.00;66.40;;;;;;5013045;28;20018;-54
2023/09/23 00:06:03;;;;;;;0.65;0.43;;;21.00;65.90;;;;;;5018071;28;20113;-56
2023/09/23 00:08:29;;;;;;;0.47;0.38;;;21.00;65.90;;;;;;5008820;28;20033;-58
2023/09/23 00:10:55;;;;;;;1.80;0.50;;;21.00;65.40;;;;;;5017492;28;20033;-58
2023/09/23 00:13:21;;;;;;;1.13;0.45;;;21.10;66.10;;;;;;4997336;28;20036;-57
2023/09/23 00:15:49;;;;;;;1.42;0.70;;;21.10;65.90;;;;;;5017570;28;20025;-55
2023/09/23 00:18:15;;;;;;;1.30;0.60;;;21.10;65.80;;;;;;5011058;28;20086;-57
2023/09/23 00:20:42;;;;;;;0.88;0.40;;;21.10;65.30;;;;;;5018549;28;20030;-56
2023/09/23 00:23:08;;;;;;;1.20;0.40;;;21.00;65.60;;;;;;5015237;28;20041;-50
2023/09/23 00:25:34;;;;;;;0.68;0.50;;;21.00;65.90;;;;;;5020971;28;20030;-59
2023/09/23 00:28:00;;;;;;;0.75;0.50;;;21.00;65.80;;;;;;5016463;28;20275;-60
2023/09/23 00:30:26;;;;;;;0.98;0.52;;;21.00;66.00;;;;;;5001895;28;20038;-50
2023/09/23 00:32:52;;;;;;;0.55;0.40;;;21.00;65.70;;;;;;5013426;28;20121;-62
2023/09/23 00:35:18;;;;;;;0.70;0.40;;;21.00;66.20;;;;;;4997549;28;20517;-55
2023/09/23 00:37:48;;;;;;;0.60;0.55;;;21.00;65.80;;;;;;5013392;28;20059;-55
2023/09/23 00:40:18;;;;;;;0.80;0.40;;;21.10;65.70;;;;;;5005123;28;20120;-55
2023/09/23 00:42:50;;;;;;;1.02;0.50;;;21.10;66.10;;;;;;5015508;28;20045;-53
2023/09/23 00:45:17;;;;;;;1.95;0.43;;;21.10;65.80;;;;;;4996861;28;20430;-58
2023/09/23 00:47:45;;;;;;;0.80;0.57;;;21.10;65.90;;;;;;4996702;28;20463;-56
2023/09/23 00:50:22;;;;;;;0.95;0.35;;;21.10;66.00;;;;;;5019932;28;20246;-54
2023/09/23 00:52:51;;;;;;;0.88;0.47;;;21.10;65.60;;;;;;5019908;28;20030;-55
2023/09/23 00:55:18;;;;;;;0.52;0.47;;;21.10;65.80;;;;;;4987952;28;20487;-55
2023/09/23 00:57:48;;;;;;;0.82;0.50;;;21.10;65.90;;;;;;5019376;28;20055;-54
2023/09/23 01:00:17;;;;;;;0.77;0.40;;;21.10;65.40;;;;;;5014082;28;20025;-54
2023/09/23 01:02:43;;;;;;;0.82;0.40;;;21.00;65.50;;;;;;5015500;28;20507;-57
2023/09/23 01:05:08;;;;;;;1.42;0.30;;;21.00;65.40;;;;;;5015251;28;20087;-50
2023/09/23 01:07:35;;;;;;;1.45;0.80;;;21.00;65.40;;;;;;5011359;28;20045;-57
2023/09/23 01:10:01;;;;;;;0.82;0.50;;;21.00;65.90;;;;;;5012781;28;20037;-54
2023/09/23 01:12:27;;;;;;;0.75;0.43;;;21.00;65.70;;;;;;5015796;28;20084;-53
2023/09/23 01:14:58;;;;;;;3.65;0.40;;;21.00;65.80;;;;;;5014364;28;20617;-55
2023/09/23 01:17:23;;;;;;;0.45;0.20;;;21.00;65.00;;;;;;5012225;28;20123;-56
2023/09/23 01:19:49;;;;;;;0.63;0.40;;;21.00;65.70;;;;;;5016094;28;20451;-53
2023/09/23 01:22:22;;;;;;;1.10;0.55;;;21.00;65.10;;;;;;5015453;28;20037;-54
2023/09/23 01:24:47;;;;;;;1.30;0.43;;;20.90;65.60;;;;;;5013616;28;20030;-53
2023/09/23 01:27:13;;;;;;;0.80;0.50;;;20.90;65.20;;;;;;5014819;28;20465;-49
2023/09/23 01:29:38;;;;;;;0.95;0.40;;;20.90;65.40;;;;;;5009321;28;20049;-55
2023/09/23 01:32:11;;;;;;;0.80;0.40;;;20.90;66.00;;;;;;5013501;28;20083;-57
2023/09/23 01:34:37;;;;;;;1.05;0.60;;;20.90;65.80;;;;;;5012509;28;20511;-57
2023/09/23 01:37:03;;;;;;;1.02;0.45;;;20.90;65.00;;;;;;5011967;28;20029;-58
2023/09/23 01:39:28;;;;;;;2.25;0.30;;;20.90;66.10;;;;;;5009853;28;20240;-52
2023/09/23 01:41:54;;;;;;;0.98;0.47;;;20.90;65.70;;;;;;5012202;28;20046;-54
2023/09/23 01:44:20;;;;;;;0.80;0.30;;;20.90;65.90;;;;;;5013227;28;20029;-54
2023/09/23 01:46:46;;;;;;;0.80;0.40;;;20.90;65.90;;;;;;4993490;28;20025;-55
2023/09/23 01:49:12;;;;;;;0.55;0.47;;;20.90;65.60;;;;;;5012390;28;20026;-54
2023/09/23 01:51:37;;;;;;;0.30;0.30;;;20.90;65.80;;;;;;5014568;28;20088;-57
2023/09/23 01:54:04;;;;;;;0.57;0.43;;;20.90;65.70;;;;;;5015405;28;20029;-57
2023/09/23 01:56:31;;;;;;;0.88;0.40;;;20.90;65.60;;;;;;5017254;28;20034;-52
2023/09/23 01:58:57;;;;;;;0.52;0.32;;;20.80;64.70;;;;;;5010776;28;20034;-56
2023/09/23 02:01:23;;;;;;;1.15;0.35;;;20.80;65.90;;;;;;5011759;28;20081;-59
2023/09/23 02:03:49;;;;;;;0.85;0.50;;;20.80;65.90;;;;;;5012338;28;20037;-54
2023/09/23 02:06:15;;;;;;;0.57;0.32;;;20.80;66.00;;;;;;5011410;28;20510;-55
2023/09/23 02:08:40;;;;;;;1.00;0.50;;;20.80;65.90;;;;;;5012884;28;20022;-50
2023/09/23 02:11:06;;;;;;;0.77;0.30;;;20.80;65.70;;;;;;5012305;28;20093;-54
2023/09/23 02:13:36;;;;;;;0.45;0.32;;;20.80;65.10;;;;;;5014058;28;20050;-53
2023/09/23 02:16:04;;;;;;;0.70;0.50;;;20.80;65.80;;;;;;5009197;28;20562;-54
2023/09/23 02:18:30;;;;;;;0.57;0.40;;;20.80;65.80;;;;;;5012890;28;20033;-53
2023/09/23 02:20:56;;;;;;;0.68;0.32;;;20.80;65.80;;;;;;5020940;28;20049;-54
2023/09/23 02:23:22;;;;;;;0.30;0.30;;;20.80;66.00;;;;;;5016017;28;20034;-55
2023/09/23 02:25:50;;;;;;;0.73;0.40;;;20.80;65.60;;;;;;5014058;28;20470;-54
2023/09/23 02:28:15;;;;;;;1.85;0.30;;;20.70;65.70;;;;;;5015391;28;20091;-53
2023/09/23 02:30:42;;;;;;;0.77;0.30;;;20.80;66.30;;;;;;5012021;28;20406;-55
2023/09/23 02:33:08;;;;;;;1.02;0.55;;;20.80;65.60;;;;;;5012447;28;20033;-58
2023/09/23 02:35:34;;;;;;;0.40;0.40;;;20.70;65.60;;;;;;5007825;28;20037;-59
2023/09/23 02:38:00;;;;;;;0.93;0.30;;;20.80;65.70;;;;;;5011067;28;20572;-52
2023/09/23 02:40:27;;;;;;;0.70;0.40;;;20.80;65.70;;;;;;5011457;28;20033;-58
2023/09/23 02:42:53;;;;;;;0.35;0.30;;;20.80;66.00;;;;;;5013362;28;20029;-54
2023/09/23 02:45:22;;;;;;;0.50;0.30;;;20.70;65.40;;;;;;5009694;28;20037;-54
2023/09/23 02:47:49;;;;;;;0.82;0.77;;;20.70;65.60;;;;;;5002060;28;20203;-52
2023/09/23 02:50:17;;;;;;;0.77;0.38;;;20.70;65.40;;;;;;4997586;28;20033;-54
2023/09/23 02:52:44;;;;;;;0.50;0.40;;;20.80;65.60;;;;;;5017074;28;20040;-51
2023/09/23 02:55:15;;;;;;;1.38;0.40;;;20.70;65.20;;;;;;5010092;28;20412;-54
2023/09/23 02:57:45;;;;;;;1.73;0.55;;;20.80;65.60;;;;;;5015424;28;20045;-57
2023/09/23 03:00:17;;;;;;;1.25;0.50;;;20.70;65.50;;;;;;5013161;28;20026;-55
2023/09/23 03:02:52;;;;;;;0.70;0.40;;;20.70;64.70;;;;;;5009759;28;20045;-53
2023/09/23 03:05:18;;;;;;;0.82;0.40;;;20.70;64.80;;;;;;5009847;28;20026;-58
2023/09/23 03:07:50;;;;;;;0.88;0.32;;;20.70;65.20;;;;;;4993807;28;20036;-51
2023/09/23 03:10:29;;;;;;;0.60;0.50;;;20.70;65.60;;;;;;4994001;28;20072;-57
2023/09/23 03:13:02;;;;;;;1.45;0.38;;;20.60;64.80;;;;;;5011889;28;20030;-54
2023/09/23 03:15:33;;;;;;;0.35;0.30;;;20.50;65.50;;;;;;5000784;28;20049;-55
2023/09/23 03:18:00;;;;;;;0.60;0.40;;;20.60;65.80;;;;;;5013356;28;20608;-58
2023/09/23 03:20:26;;;;;;;1.15;0.28;;;20.60;65.40;;;;;;5015489;28;20095;-58
2023/09/23 03:22:53;;;;;;;1.20;0.32;;;20.70;65.50;;;;;;5017437;28;20078;-55
2023/09/23 03:25:20;;;;;;;0.40;0.30;;;20.70;65.80;;;;;;5015905;28;20136;-56
2023/09/23 03:27:52;;;;;;;0.30;0.30;;;20.70;65.50;;;;;;5012665;28;20034;-56
2023/09/23 03:30:18;;;;;;;0.57;0.38;;;20.60;65.30;;;;;;5015538;28;20538;-58
2023/09/23 03:32:46;;;;;;;0.57;0.30;;;20.60;65.60;;;;;;5013740;28;20049;-57
2023/09/23 03:35:20;;;;;;;0.40;0.40;;;20.60;65.60;;;;;;5011176;28;20026;-53
2023/09/23 03:37:50;;;;;;;0.60;0.60;;;20.60;65.40;;;;;;5014149;28;20052;-53
2023/09/23 03:40:20;;;;;;;0.90;0.47;;;20.60;65.50;;;;;;5008619;28;20076;-55
2023/09/23 03:42:47;;;;;;;2.28;0.50;;;20.60;64.90;;;;;;5014431;28;20648;-56
2023/09/23 03:45:14;;;;;;;1.15;0.40;;;20.50;65.30;;;;;;5016043;28;20144;-51
2023/09/23 03:47:39;;;;;;;0.77;0.50;;;20.50;65.50;;;;;;5014689;28;20092;-57
2023/09/23 03:50:07;;;;;;;0.40;0.30;;;20.50;64.80;;;;;;5015330;28;20245;-56
2023/09/23 03:52:33;;;;;;;1.50;0.45;;;20.50;65.60;;;;;;5014501;28;20037;-53
2023/09/23 03:54:59;;;;;;;0.90;0.35;;;20.50;65.30;;;;;;5012567;28;20036;-55
2023/09/23 03:57:24;;;;;;;0.60;0.30;;;20.50;65.30;;;;;;5010366;28;20045;-55
2023/09/23 03:59:50;;;;;;;1.73;0.50;;;20.50;65.30;;;;;;5014306;28;20033;-57
2023/09/23 04:02:15;;;;;;;1.42;0.40;;;20.50;65.80;;;;;;5014491;28;20056;-54
2023/09/23 04:04:41;;;;;;;0.40;0.30;;;20.50;65.50;;;;;;5014427;28;20299;-53
2023/09/23 04:07:07;;;;;;;0.50;0.40;;;20.50;66.10;;;;;;5012937;28;20734;-54
2023/09/23 04:09:33;;;;;;;0.57;0.30;;;20.50;65.60;;;;;;5012618;28;20026;-56
2023/09/23 04:12:05;;;;;;;2.00;0.40;;;20.50;65.70;;;;;;5019935;28;20030;-55
2023/09/23 04:14:30;;;;;;;0.77;0.40;;;20.50;65.50;;;;;;5017211;28;20049;-54
2023/09/23 04:16:56;;;;;;;0.85;0.30;;;20.50;65.50;;;;;;5020943;28;20029;-56
2023/09/23 04:19:21;;;;;;;0.55;0.30;;;20.60;65.60;;;;;;5014941;28;20055;-57
2023/09/23 04:21:47;;;;;;;0.47;0.40;;;20.50;65.70;;;;;;5018072;28;20109;-55
2023/09/23 04:24:13;;;;;;;0.35;0.20;;;20.50;65.40;;;;;;5013325;28;20033;-54
2023/09/23 04:26:38;;;;;;;1.35;0.40;;;20.50;65.70;;;;;;5015372;28;20029;-55
2023/09/23 04:29:04;;;;;;;0.40;0.35;;;20.50;65.60;;;;;;5012601;28;20038;-55
2023/09/23 04:31:30;;;;;;;0.77;0.40;;;20.50;65.30;;;;;;5013342;28;20026;-52
2023/09/23 04:33:55;;;;;;;0.70;0.40;;;20.50;65.80;;;;;;5014658;28;20231;-53
2023/09/23 04:36:21;;;;;;;0.60;0.30;;;20.50;65.50;;;;;;5014117;28;20030;-57
2023/09/23 04:38:48;;;;;;;0.40;0.30;;;20.50;65.80;;;;;;4993991;28;20152;-57
2023/09/23 04:41:13;;;;;;;0.35;0.30;;;20.50;65.50;;;;;;5019474;28;20348;-57
2023/09/23 04:43:40;;;;;;;0.65;0.40;;;20.50;65.40;;;;;;5018696;28;20069;-58
2023/09/23 04:46:06;;;;;;;0.60;0.32;;;20.50;65.40;;;;;;5017173;28;20038;-56
2023/09/23 04:48:31;;;;;;;0.57;0.38;;;20.50;65.70;;;;;;5016279;28;20034;-54
2023/09/23 04:50:57;;;;;;;0.40;0.30;;;20.50;65.50;;;;;;5016744;28;20025;-56
2023/09/23 04:53:23;;;;;;;0.70;0.40;;;20.50;65.50;;;;;;5017077;28;20029;-54
2023/09/23 04:55:48;;;;;;;0.63;0.43;;;20.50;65.10;;;;;;5015279;28;20359;-54
2023/09/23 04:58:14;;;;;;;0.85;0.50;;;20.40;65.20;;;;;;5012456;28;20040;-52
2023/09/23 05:00:39;;;;;;;0.47;0.28;;;20.40;64.60;;;;;;5014839;28;20117;-56
2023/09/23 05:03:08;;;;;;;0.60;0.40;;;20.20;65.70;;;;;;5011972;28;20045;-53
2023/09/23 05:05:34;;;;;;;0.70;0.43;;;20.20;65.70;;;;;;5010808;28;20049;-56
2023/09/23 05:08:02;;;;;;;0.60;0.32;;;20.30;65.30;;;;;;5008137;28;20124;-54
2023/09/23 05:10:28;;;;;;;1.67;0.60;;;20.20;65.30;;;;;;5018761;28;20052;-55
2023/09/23 05:12:54;;;;;;;0.40;0.30;;;20.30;64.80;;;;;;5020825;28;20075;-52
2023/09/23 05:15:19;;;;;;;1.83;0.30;;;20.30;65.70;;;;;;5012589;28;20045;-54
2023/09/23 05:17:45;;;;;;;2.83;0.50;;;20.30;65.90;;;;;;5015614;28;20032;-52
2023/09/23 05:20:21;;;;;;;1.17;0.57;;;20.40;65.70;;;;;;5016469;28;20437;-57
2023/09/23 05:22:47;;;;;;;1.42;0.20;;;20.40;65.20;;;;;;5015018;28;20037;-52
2023/09/23 05:25:14;;;;;;;0.30;0.30;;;20.40;65.40;;;;;;5016330;28;20034;-57
2023/09/23 05:27:40;;;;;;;0.77;0.40;;;20.30;65.00;;;;;;5015819;28;20029;-53
2023/09/23 05:30:10;;;;;;;0.50;0.40;;;20.30;65.30;;;;;;5015086;28;20416;-54
2023/09/23 05:32:39;;;;;;;1.40;0.40;;;20.30;65.20;;;;;;5016845;28;20095;-52
2023/09/23 05:35:09;;;;;;;0.68;0.40;;;20.30;64.90;;;;;;5013966;28;20029;-56
2023/09/23 05:37:39;;;;;;;0.85;0.30;;;20.30;65.30;;;;;;5020160;28;20187;-54
2023/09/23 05:40:10;;;;;;;0.70;0.30;;;20.30;65.50;;;;;;5020088;28;20037;-53
2023/09/23 05:42:36;;;;;;;0.55;0.25;;;20.30;65.10;;;;;;5017008;28;20094;-53
2023/09/23 05:45:03;;;;;;;1.33;0.50;;;20.30;65.50;;;;;;5016474;28;20112;-51
2023/09/23 05:47:30;;;;;;;0.85;0.40;;;20.30;65.70;;;;;;5014666;28;20034;-56
2023/09/23 05:49:56;;;;;;;1.33;0.30;;;20.30;64.80;;;;;;5014462;28;20525;-55
2023/09/23 05:52:21;;;;;;;1.27;0.65;;;20.30;64.10;;;;;;5013692;28;20030;-52
2023/09/23 05:54:48;;;;;;;0.82;0.30;;;20.30;65.30;;;;;;5013900;28;20037;-57
2023/09/23 05:57:13;;;;;;;0.68;0.30;;;20.30;65.00;;;;;;4997434;28;20030;-57
2023/09/23 05:59:39;;;;;;;0.30;0.30;;;20.30;65.10;;;;;;5013006;28;20032;-57
2023/09/23 06:02:08;;;;;;;0.85;0.30;;;20.20;64.60;;;;;;5012754;28;20124;-52
2023/09/23 06:04:34;;;;;;;0.80;0.35;;;20.30;64.40;;;;;;5014083;28;20048;-54
2023/09/23 06:07:00;;;;;;;0.30;0.28;;;20.30;65.10;;;;;;5020766;28;20043;-52
2023/09/23 06:09:26;;;;;;;0.55;0.52;;;20.30;65.10;;;;;;5001335;28;20496;-54
2023/09/23 06:11:52;;;;;;;0.70;0.30;;;20.30;65.00;;;;;;4996378;28;20034;-52
2023/09/23 06:14:17;;;;;;;1.30;0.40;;;20.30;64.90;;;;;;4998918;28;20038;-57
2023/09/23 06:16:44;;;;;;;0.40;0.30;;;20.30;65.00;;;;;;5017231;28;20029;-55
2023/09/23 06:19:09;;;;;;;0.57;0.30;;;20.30;65.30;;;;;;5014410;28;20099;-55
2023/09/23 06:21:35;;;;;;;0.47;0.25;;;20.30;65.50;;;;;;5014273;28;20045;-56
2023/09/23 06:24:00;;;;;;;1.20;0.40;;;20.30;65.30;;;;;;5014376;28;20229;-54
2023/09/23 06:26:26;;;;;;;0.28;0.20;;;20.30;64.70;;;;;;5012456;28;20064;-54
2023/09/23 06:28:51;;;;;;;1.45;0.45;;;20.30;65.40;;;;;;5015014;28;20030;-53
2023/09/23 06:31:17;;;;;;;0.40;0.40;;;20.30;64.30;;;;;;5012963;28;20030;-50
2023/09/23 06:33:42;;;;;;;0.40;0.30;;;20.30;64.70;;;;;;5013740;28;20061;-51
2023/09/23 06:36:08;;;;;;;0.77;0.55;;;20.30;65.20;;;;;;5018624;28;20025;-58
2023/09/23 06:38:34;;;;;;;0.30;0.30;;;20.30;64.40;;;;;;5000708;28;20376;-54
2023/09/23 06:40:59;;;;;;;0.70;0.38;;;20.30;65.10;;;;;;5015855;28;20111;-51
2023/09/23 06:43:25;;;;;;;1.02;0.30;;;20.20;64.80;;;;;;5014868;28;20182;-58
2023/09/23 06:45:54;;;;;;;0.98;0.40;;;20.20;64.80;;;;;;5017698;28;20037;-56
2023/09/23 06:48:20;;;;;;;0.40;0.30;;;20.30;65.80;;;;;;5014670;28;20037;-56
2023/09/23 06:50:54;;;;;;;0.68;0.30;;;20.30;65.40;;;;;;5014419;28;20030;-55
2023/09/23 06:53:19;;;;;;;2.20;0.40;;;20.30;65.10;;;;;;5008622;28;20041;-55
2023/09/23 06:55:45;;;;;;;2.17;0.40;;;20.40;63.00;;;;;;5011062;28;20052;-56
2023/09/23 06:58:10;;;;;;;0.77;0.50;;;20.30;65.20;;;;;;5012223;28;20026;-54
2023/09/23 07:00:36;;;;;;;1.35;0.55;;;20.30;65.60;;;;;;5011786;28;20411;-51
2023/09/23 07:03:03;;;;;;;0.40;0.30;;;20.40;65.10;;;;;;5011152;28;20065;-52
2023/09/23 07:05:29;;;;;;;0.88;0.40;;;20.40;65.30;;;;;;5015382;28;20041;-58
2023/09/23 07:07:54;;;;;;;0.98;0.32;;;20.40;65.00;;;;;;5018417;28;20420;-56
2023/09/23 07:10:20;;;;;;;2.15;0.75;;;20.40;64.80;;;;;;4996451;28;20098;-52
2023/09/23 07:12:46;;;;;;;5.68;3.15;;;20.30;64.20;;;;;;5011595;28;20040;-54
2023/09/23 07:15:11;;;;;;;8.45;4.57;;;20.40;65.50;;;;;;5013731;28;20064;-56
2023/09/23 07:17:37;;;;;;;12.55;5.30;;;20.40;65.20;;;;;;4998840;28;20037;-53
2023/09/23 07:20:02;;;;;;;12.75;6.15;;;20.40;65.10;;;;;;4999566;28;20037;-50
2023/09/23 07:22:28;;;;;;;10.27;5.25;;;20.40;65.60;;;;;;5010978;28;20042;-53
2023/09/23 07:24:54;;;;;;;8.95;4.30;;;20.40;65.00;;;;;;5013927;28;20083;-56
2023/09/23 07:27:19;;;;;;;7.07;3.78;;;20.30;65.10;;;;;;5010906;28;20125;-54
2023/09/23 07:29:45;;;;;;;7.55;3.40;;;20.30;65.30;;;;;;5021843;28;20057;-55
2023/09/23 07:32:11;;;;;;;5.93;2.92;;;20.30;65.20;;;;;;5020977;28;20037;-57
2023/09/23 07:34:36;;;;;;;4.55;2.30;;;20.40;64.90;;;;;;5023888;28;20029;-56
2023/09/23 07:37:02;;;;;;;5.45;2.65;;;20.40;64.50;;;;;;5025223;28;20041;-55
2023/09/23 07:39:28;;;;;;;5.40;2.08;;;20.40;65.10;;;;;;5022185;28;20038;-55
2023/09/23 07:41:54;;;;;;;4.57;1.42;;;20.40;64.90;;;;;;5019900;28;20479;-56
2023/09/23 07:44:20;;;;;;;2.72;1.60;;;20.40;64.60;;;;;;5021123;28;20506;-57
2023/09/23 07:46:45;;;;;;;4.05;1.60;;;20.30;64.20;;;;;;5017193;28;20038;-53
2023/09/23 07:49:11;;;;;;;3.47;1.33;;;20.40;64.20;;;;;;5019314;28;20050;-56
2023/09/23 07:51:37;;;;;;;3.35;2.05;;;20.30;63.10;;;;;;5015683;28;20347;-53
2023/09/23 07:54:03;;;;;;;1.60;1.20;;;20.30;64.50;;;;;;5015785;28;20038;-55
2023/09/23 07:56:28;;;;;;;1.42;0.90;;;20.30;63.50;;;;;;5016180;28;20052;-53
2023/09/23 07:58:56;;;;;;;3.15;1.38;;;20.20;64.60;;;;;;5017302;28;20049;-51
2023/09/23 08:01:21;;;;;;;2.58;1.42;;;20.20;64.10;;;;;;5015277;28;20494;-51
2023/09/23 08:03:47;;;;;;;1.95;1.00;;;20.30;63.80;;;;;;5020915;28;20654;-52
2023/09/23 08:06:12;;;;;;;2.53;1.10;;;20.20;64.00;;;;;;5021470;28;20029;-52
2023/09/23 08:08:38;;;;;;;1.17;0.85;;;20.30;64.30;;;;;;5000454;28;20033;-52
2023/09/23 08:11:05;;;;;;;1.85;1.13;;;20.40;64.60;;;;;;5002550;28;20064;-55
2023/09/23 08:15:58;;;;;;;2.97;1.05;;;20.40;63.10;;;;;;5032980;28;20512;-55
2023/09/23 08:18:24;;;;;;;1.67;0.70;;;20.30;64.00;;;;;;5037918;28;20245;-55
2023/09/23 08:20:59;;;;;;;1.00;0.75;;;20.30;64.20;;;;;;5034943;28;20124;-52
2023/09/23 08:23:25;;;;;;;1.70;0.75;;;20.30;64.30;;;;;;5033103;28;20030;-57
2023/09/23 08:25:51;;;;;;;2.05;0.75;;;20.30;64.40;;;;;;5035513;28;20055;-55
2023/09/23 08:28:18;;;;;;;1.17;0.60;;;20.30;63.10;;;;;;5033945;28;20125;-57
2023/09/23 08:30:44;;;;;;;2.22;0.70;;;20.30;63.70;;;;;;5040136;28;20082;-55
2023/09/23 08:33:12;;;;;;;5.07;2.60;;;20.30;64.30;;;;;;5041614;28;20025;-54
2023/09/23 08:35:37;;;;;;;4.57;2.42;;;20.30;66.60;;;;;;5039099;28;20118;-55
2023/09/23 08:38:03;;;;;;;4.05;1.95;;;20.40;66.60;;;;;;5040430;28;20361;-55
2023/09/23 08:40:33;;;;;;;4.88;1.65;;;20.50;66.20;;;;;;5038530;28;20115;-55
2023/09/23 08:43:04;;;;;;;4.07;1.33;;;20.50;65.40;;;;;;5039615;28;20056;-56
2023/09/23 08:45:31;;;;;;;1.65;1.15;;;20.50;64.40;;;;;;5039419;28;20094;-54
2023/09/23 08:47:57;;;;;;;5.00;0.82;;;20.40;64.60;;;;;;5038737;28;20405;-52
2023/09/23 08:50:25;;;;;;;1.63;0.60;;;20.40;64.20;;;;;;5031105;28;20032;-55
2023/09/23 08:52:51;;;;;;;1.48;0.90;;;20.40;63.90;;;;;;5033424;28;20062;-53
2023/09/23 08:55:18;;;;;;;2.25;0.63;;;20.40;63.80;;;;;;5035170;28;20120;-56
2023/09/23 08:57:43;;;;;;;1.33;0.40;;;20.40;63.20;;;;;;5034431;28;20041;-57
2023/09/23 09:00:10;;;;;;;2.72;0.30;;;20.30;62.00;;;;;;5037921;28;20032;-54
2023/09/23 09:02:36;;;;;;;1.58;0.40;;;20.30;61.70;;;;;;5037630;28;20037;-56
2023/09/23 09:05:02;;;;;;;2.40;0.57;;;20.30;60.70;;;;;;5041649;28;20032;-57
2023/09/23 09:07:35;;;;;;;0.93;0.45;;;20.30;61.10;;;;;;5038203;28;20621;-54
2023/09/23 09:10:02;;;;;;;0.80;0.40;;;20.20;61.20;;;;;;5034049;28;20116;-53
2023/09/23 09:12:27;;;;;;;0.70;0.30;;;20.30;61.60;;;;;;5038154;28;20029;-54
2023/09/23 09:14:53;;;;;;;2.38;0.57;;;20.30;61.60;;;;;;5035318;28;20410;-53
2023/09/23 09:17:19;;;;;;;1.00;0.40;;;20.30;61.70;;;;;;5019860;28;20040;-52
2023/09/23 09:19:45;;;;;;;0.65;0.35;;;20.30;61.20;;;;;;5028358;28;20183;-52
2023/09/23 09:22:10;;;;;;;4.57;0.57;;;20.30;60.80;;;;;;5035600;28;20605;-52
2023/09/23 09:24:36;;;;;;;4.03;0.52;;;20.30;60.90;;;;;;5034184;28;20112;-54
2023/09/23 09:27:01;;;;;;;0.82;0.40;;;20.30;60.90;;;;;;5033866;28;20021;-52
2023/09/23 09:29:29;;;;;;;1.10;0.55;;;20.30;60.40;;;;;;5040172;28;20390;-52
2023/09/23 09:32:00;;;;;;;1.10;0.60;;;20.30;60.10;;;;;;5036280;28;20487;-51
2023/09/23 09:34:31;;;;;;;1.25;0.40;;;20.30;60.50;;;;;;5040312;28;20537;-53
2023/09/23 09:36:57;;;;;;;1.10;0.40;;;20.30;59.70;;;;;;5038469;28;20049;-55
2023/09/23 09:39:31;;;;;;;1.30;0.50;;;20.30;59.40;;;;;;5022241;28;20025;-52
2023/09/23 09:42:02;;;;;;;1.05;0.40;;;20.20;59.70;;;;;;5038838;28;20041;-56
2023/09/23 09:44:29;;;;;;;1.40;0.45;;;20.20;58.00;;;;;;5036237;28;20033;-53
2023/09/23 09:46:56;;;;;;;0.93;0.40;;;20.10;58.60;;;;;;5034527;28;20032;-57
2023/09/23 09:49:23;;;;;;;1.20;0.70;;;20.20;58.50;;;;;;5034432;28;20104;-53
2023/09/23 09:51:49;;;;;;;1.17;0.30;;;20.10;58.00;;;;;;5033373;28;20085;-58
2023/09/23 09:54:19;;;;;;;1.17;0.40;;;20.20;58.00;;;;;;5037150;28;20071;-55
2023/09/23 09:56:47;;;;;;;1.65;0.60;;;20.20;57.50;;;;;;5031865;28;20758;-54
2023/09/23 09:59:27;;;;;;;0.80;0.47;;;20.20;57.90;;;;;;5040439;28;20282;-56
2023/09/23 10:01:56;;;;;;;2.13;0.40;;;20.10;57.60;;;;;;5037521;28;20883;-56
2023/09/23 10:04:22;;;;;;;1.02;0.60;;;20.10;57.30;;;;;;5042158;28;20033;-52
2023/09/23 10:06:56;;;;;;;0.90;0.60;;;20.10;57.30;;;;;;5035827;28;20175;-54
2023/09/23 10:09:27;;;;;;;3.23;0.73;;;20.10;57.60;;;;;;5036848;28;20116;-55
2023/09/23 10:11:58;;;;;;;1.20;0.57;;;20.10;58.10;;;;;;5036891;28;20064;-52
2023/09/23 10:14:24;;;;;;;0.90;0.50;;;20.10;57.30;;;;;;5036160;28;20512;-54
2023/09/23 10:16:52;;;;;;;1.40;0.50;;;20.10;57.90;;;;;;5036771;28;20033;-53
2023/09/23 10:19:28;;;;;;;1.23;0.70;;;20.10;57.50;;;;;;5034196;28;20113;-55
2023/09/23 10:22:16;;;;;;;1.63;0.70;;;20.10;57.60;;;;;;5033640;28;20083;-54
2023/09/23 10:24:43;;;;;;;0.70;0.40;;;20.10;57.90;;;;;;5031969;28;20585;-55
2023/09/23 10:27:12;;;;;;;1.02;0.47;;;20.00;57.30;;;;;;5036268;28;20421;-52
2023/09/23 10:29:47;;;;;;;2.42;0.30;;;20.00;57.30;;;;;;5037760;28;20028;-54
2023/09/23 10:32:17;;;;;;;2.10;0.47;;;20.00;57.30;;;;;;5033365;28;20029;-58
2023/09/23 10:34:52;;;;;;;0.40;0.32;;;20.00;56.70;;;;;;5037171;28;20033;-56
2023/09/23 10:37:32;;;;;;;1.80;1.00;;;20.00;57.10;;;;;;5036352;28;20116;-55
2023/09/23 10:40:14;;;;;;;2.97;0.60;;;20.00;56.20;;;;;;5037436;28;20041;-56
2023/09/23 10:42:41;;;;;;;1.83;0.80;;;20.00;57.00;;;;;;5031459;28;20041;-54
2023/09/23 10:45:07;;;;;;;1.73;0.52;;;20.00;57.70;;;;;;5036818;28;20025;-56
2023/09/23 10:47:36;;;;;;;3.85;1.90;;;20.00;58.90;;;;;;5031986;28;20037;-52
2023/09/23 10:50:05;;;;;;;18.85;6.50;;;20.10;59.00;;;;;;5032571;28;20033;-56
2023/09/23 10:52:31;;;;;;;13.43;9.18;;;20.10;59.40;;;;;;5032651;28;20069;-61
2023/09/23 10:54:57;;;;;;;8.00;4.90;;;20.00;57.10;;;;;;5033658;28;20064;-56
2023/09/23 10:57:23;;;;;;;5.82;3.10;;;20.00;56.60;;;;;;5017430;28;20021;-56
2023/09/23 10:59:50;;;;;;;4.70;2.85;;;20.00;56.70;;;;;;5013332;28;20483;-54
2023/09/23 11:02:18;;;;;;;3.47;1.27;;;20.00;57.20;;;;;;5027507;28;20067;-54
2023/09/23 11:04:50;;;;;;;2.92;0.90;;;20.00;55.30;;;;;;5034559;28;20254;-55
2023/09/23 11:07:16;;;;;;;3.00;0.90;;;19.90;56.40;;;;;;5036129;28;20021;-53
2023/09/23 11:09:46;;;;;;;2.20;0.77;;;19.90;54.70;;;;;;5019471;28;20033;-53
2023/09/23 11:12:13;;;;;;;3.28;0.93;;;19.90;54.00;;;;;;5033284;28;20033;-52
2023/09/23 11:14:43;;;;;;;1.27;0.60;;;19.90;54.50;;;;;;5031644;28;20033;-53
2023/09/23 11:17:26;;;;;;;1.48;0.70;;;19.80;54.70;;;;;;5031094;28;20029;-54
2023/09/23 11:19:59;;;;;;;1.85;1.05;;;19.90;55.00;;;;;;5031846;28;20041;-53
2023/09/23 11:22:26;;;;;;;1.55;0.88;;;19.80;54.70;;;;;;5034373;28;20534;-52
2023/09/23 11:24:53;;;;;;;1.85;0.70;;;19.80;55.20;;;;;;5023281;28;20044;-54
2023/09/23 11:27:18;;;;;;;1.60;0.60;;;19.80;55.20;;;;;;5015076;28;20071;-53
2023/09/23 11:29:44;;;;;;;1.05;0.60;;;19.80;55.50;;;;;;5036559;28;20300;-52
2023/09/23 11:32:10;;;;;;;0.95;0.50;;;19.90;56.00;;;;;;5037587;28;20036;-56
2023/09/23 11:34:36;;;;;;;2.03;0.63;;;19.80;55.30;;;;;;5036733;28;20304;-55
2023/09/23 11:37:02;;;;;;;1.08;0.50;;;19.80;55.00;;;;;;5036758;28;20702;-55
2023/09/23 11:39:32;;;;;;;1.77;0.70;;;19.80;54.70;;;;;;5034094;28;20029;-58
2023/09/23 11:41:58;;;;;;;1.80;0.40;;;19.80;55.00;;;;;;5033445;28;20359;-54
2023/09/23 11:44:24;;;;;;;2.03;0.55;;;19.80;55.40;;;;;;5018862;28;20029;-58
2023/09/23 11:46:49;;;;;;;2.92;0.75;;;19.90;56.90;;;;;;5018386;28;20104;-58
2023/09/23 11:49:15;;;;;;;5.35;0.73;;;20.00;58.30;;;;;;5033145;28;20018;-52
2023/09/23 11:51:41;;;;;;;1.02;0.50;;;20.00;57.90;;;;;;5033917;28;20109;-56
2023/09/23 11:54:08;;;;;;;0.82;0.40;;;20.00;57.10;;;;;;5032651;28;20083;-54
2023/09/23 11:56:33;;;;;;;2.00;0.90;;;20.00;57.30;;;;;;5035971;28;20521;-56
2023/09/23 11:58:59;;;;;;;2.50;0.75;;;20.00;57.40;;;;;;5037890;28;20049;-55
2023/09/23 12:01:24;;;;;;;3.13;1.02;;;20.10;56.80;;;;;;5036306;28;20142;-53
2023/09/23 12:03:51;;;;;;;0.75;0.50;;;20.00;56.60;;;;;;5034145;28;20082;-54
2023/09/23 12:06:17;;;;;;;1.70;0.57;;;20.00;56.80;;;;;;5033986;28;20203;-53
2023/09/23 12:08:42;;;;;;;3.28;0.98;;;20.00;56.50;;;;;;5034252;28;20442;-55
2023/09/23 12:11:08;;;;;;;3.55;0.70;;;20.00;56.40;;;;;;5035673;28;20120;-57
2023/09/23 12:13:33;;;;;;;1.88;0.70;;;20.00;56.30;;;;;;5033726;28;20079;-53
2023/09/23 12:15:59;;;;;;;2.65;0.60;;;20.00;57.00;;;;;;5029456;28;20787;-52
2023/09/23 12:18:24;;;;;;;3.17;0.70;;;20.00;55.10;;;;;;5029594;28;20030;-56
2023/09/23 12:20:50;;;;;;;4.00;1.00;;;19.90;56.40;;;;;;5028791;28;20037;-54
2023/09/23 12:23:16;;;;;;;3.88;0.55;;;20.00;56.90;;;;;;5032809;28;20048;-53
2023/09/23 12:25:43;;;;;;;1.88;0.47;;;20.00;57.30;;;;;;5035493;28;20033;-55
2023/09/23 12:28:08;;;;;;;3.13;0.60;;;20.00;56.40;;;;;;5036275;28;20029;-58
2023/09/23 12:30:34;;;;;;;2.20;0.63;;;20.00;57.20;;;;;;5037226;28;20036;-54
2023/09/23 12:33:02;;;;;;;2.33;0.98;;;20.00;56.90;;;;;;5019855;28;20048;-55
2023/09/23 12:35:27;;;;;;;1.58;0.57;;;20.00;57.20;;;;;;5037177;28;20474;-52
2023/09/23 12:37:54;;;;;;;0.85;0.60;;;20.10;57.50;;;;;;5037758;28;20155;-53
2023/09/23 12:40:19;;;;;;;5.45;0.77;;;20.00;57.50;;;;;;5017990;28;20075;-55
2023/09/23 12:42:45;;;;;;;1.67;0.50;;;20.10;57.90;;;;;;5033480;28;20041;-56
2023/09/23 12:45:11;;;;;;;0.65;0.43;;;20.10;58.00;;;;;;5031879;28;20040;-53
2023/09/23 12:47:37;;;;;;;2.60;1.15;;;20.10;57.90;;;;;;5034560;28;20465;-50